Time;durP1;ratioP1;P1;durP2;ratioP2;P2;SDS_P1;SDS_P2;PMS_P1;PMS_P2;Temp;Humidity;BMP_temperature;BMP_pressure;BME280_temperature;BME280_humidity;BME280_pressure;Samples;Min_cycle;Max_cycle;Signal;HPM_P1;HPM_P2
2022/06/27 00:00:47;;;;;;;5.30;4.80;;;;;;;22.37;55.03;101034.25;5053204;28;20233;-71
2022/06/27 00:03:13;;;;;;;5.00;4.60;;;;;;;21.73;57.02;101038.13;5053698;28;20545;-71
2022/06/27 00:05:38;;;;;;;5.10;4.70;;;;;;;21.49;58.34;101029.13;5053652;28;20427;-71
2022/06/27 00:08:04;;;;;;;4.90;4.60;;;;;;;21.33;59.49;101032.22;5053102;28;20816;-69
2022/06/27 00:10:29;;;;;;;5.07;4.60;;;;;;;;;;5053493;28;21614;-69
2022/06/27 00:12:55;;;;;;;4.97;4.57;;;;;;;22.09;57.31;101036.94;5054355;28;20566;-71
2022/06/27 00:15:20;;;;;;;5.20;4.80;;;;;;;22.60;55.60;101038.75;5052189;28;20264;-68
2022/06/27 00:17:45;;;;;;;4.87;4.40;;;;;;;22.06;56.98;101047.69;5052229;28;20162;-69
2022/06/27 00:20:12;;;;;;;5.17;4.77;;;;;;;22.61;55.82;101043.16;5054725;28;20177;-70
2022/06/27 00:22:37;;;;;;;4.70;4.30;;;;;;;22.45;56.29;101044.63;5055210;28;20222;-69
2022/06/27 00:25:03;;;;;;;6.80;4.93;;;;;;;22.47;56.52;101026.81;5056807;28;20436;-71
2022/06/27 00:27:29;;;;;;;5.10;4.70;;;;;;;22.01;57.46;101022.16;5057303;28;20184;-69
2022/06/27 00:29:54;;;;;;;5.10;4.70;;;;;;;21.75;57.82;101020.34;5056654;28;20177;-69
2022/06/27 00:32:21;;;;;;;5.30;4.90;;;;;;;21.86;58.16;101014.69;5059326;28;20170;-72
2022/06/27 00:34:47;;;;;;;5.00;4.70;;;;;;;21.90;58.29;101015.47;5060744;28;20181;-71
2022/06/27 00:37:12;;;;;;;5.50;5.00;;;;;;;21.42;58.99;101012.53;5060869;28;20430;-70
2022/06/27 00:39:37;;;;;;;5.30;4.90;;;;;;;22.09;57.50;101015.72;5061198;28;20178;-70
2022/06/27 00:42:03;;;;;;;5.67;5.17;;;;;;;22.34;56.83;101023.72;5060386;28;20248;-70
2022/06/27 00:44:33;;;;;;;5.23;4.83;;;;;;;22.35;57.50;101026.34;5060701;28;20169;-69
2022/06/27 00:46:59;;;;;;;5.70;5.20;;;;;;;22.04;57.17;101029.13;5061156;28;20174;-70
2022/06/27 00:49:25;;;;;;;5.47;5.07;;;;;;;22.40;57.02;101020.84;5061015;28;20798;-70
2022/06/27 00:51:50;;;;;;;5.50;5.00;;;;;;;22.54;56.61;101015.94;5060560;28;20173;-69
2022/06/27 00:54:15;;;;;;;5.10;4.70;;;;;;;22.42;56.80;101015.47;5059880;28;20177;-71
2022/06/27 00:56:41;;;;;;;5.40;5.00;;;;;;;22.24;58.29;101019.63;5059601;28;20239;-69
2022/06/27 00:59:06;;;;;;;5.57;5.07;;;;;;;22.06;58.08;101011.38;5060300;28;20551;-68
2022/06/27 01:01:32;;;;;;;4.77;4.47;;;;;;;21.41;60.68;101010.78;5060401;28;20524;-70
2022/06/27 01:04:00;;;;;;;5.30;4.87;;;;;;;21.90;59.60;101012.81;5060025;28;20174;-68
2022/06/27 01:06:26;;;;;;;5.03;4.73;;;;;;;21.67;60.33;101014.44;5060386;28;20202;-69
2022/06/27 01:08:52;;;;;;;5.40;4.90;;;;;;;22.05;59.26;101014.94;5060112;28;20418;-70
2022/06/27 01:11:17;;;;;;;5.50;5.10;;;;;;;21.77;59.63;101009.69;5059925;28;20821;-69
2022/06/27 01:13:43;;;;;;;6.30;5.03;;;;;;;22.02;59.81;101017.72;5059690;28;20224;-69
2022/06/27 01:16:09;;;;;;;5.33;4.93;;;;;;;21.80;60.00;101022.88;5060149;28;20222;-69
2022/06/27 01:18:34;;;;;;;5.37;4.87;;;;;;;21.53;60.95;101021.03;5059949;28;20512;-69
2022/06/27 01:20:59;;;;;;;5.27;4.87;;;;;;;22.48;58.71;101010.81;5060551;28;20518;-69
2022/06/27 01:23:25;;;;;;;5.30;4.80;;;;;;;22.03;60.10;101019.44;5058943;28;20245;-70
2022/06/27 01:25:50;;;;;;;6.10;5.10;;;;;;;22.60;58.61;101032.56;5059924;28;20174;-71
2022/06/27 01:28:16;;;;;;;5.27;4.87;;;;;;;22.73;58.15;101056.91;5059727;28;20196;-70
2022/06/27 01:30:41;;;;;;;5.03;4.63;;;;;;;22.26;58.91;101137.28;5060111;28;20497;-70
2022/06/27 01:33:07;;;;;;;7.03;5.17;;;;;;;22.05;59.95;101184.84;5059667;28;20192;-70
2022/06/27 01:35:32;;;;;;;5.50;5.00;;;;;;;21.80;60.20;101195.38;5058978;28;20412;-70
2022/06/27 01:37:57;;;;;;;5.40;4.90;;;;;;;21.89;59.93;101168.53;5059482;28;20174;-70
2022/06/27 01:40:23;;;;;;;5.77;5.27;;;;;;;21.87;60.30;101122.59;5060068;28;20173;-69
2022/06/27 01:42:49;;;;;;;5.00;4.60;;;;;;;22.17;58.10;101125.19;5059505;28;20183;-69
2022/06/27 01:45:14;;;;;;;9.13;5.70;;;;;;;22.12;58.82;101164.28;5058576;28;20170;-69
2022/06/27 01:47:39;;;;;;;5.70;4.90;;;;;;;22.19;58.57;101164.06;5059392;28;20227;-70
2022/06/27 01:50:05;;;;;;;6.20;5.00;;;;;;;21.79;59.44;101157.34;5059757;28;20186;-70
2022/06/27 01:52:31;;;;;;;6.70;5.90;;;;;;;21.69;60.06;101124.06;5059362;28;20258;-70
2022/06/27 01:54:57;;;;;;;5.93;5.43;;;;;;;22.32;57.86;101108.72;5059520;28;20162;-70
2022/06/27 01:57:23;;;;;;;5.50;5.00;;;;;;;22.02;58.63;101131.88;5059862;28;20424;-69
2022/06/27 01:59:50;;;;;;;5.20;4.73;;;;;;;21.86;59.41;101134.97;5058969;28;20435;-70
2022/06/27 02:02:15;;;;;;;6.70;4.83;;;;;;;21.75;60.00;101123.84;5058643;28;20463;-69
2022/06/27 02:04:41;;;;;;;4.87;4.43;;;;;;;21.93;59.04;101105.59;5059073;28;20743;-69
2022/06/27 02:07:07;;;;;;;5.00;4.50;;;;;;;22.06;59.48;101084.84;5058778;28;20574;-69
2022/06/27 02:09:33;;;;;;;5.07;4.70;;;;;;;21.78;60.23;101101.66;5059416;28;20558;-69
2022/06/27 02:12:18;;;;;;;5.60;4.73;;;;;;;21.39;61.37;101120.50;5059215;28;20165;-69
2022/06/27 02:14:43;;;;;;;5.47;5.00;;;;;;;21.39;61.52;101113.38;5058094;28;20583;-70
2022/06/27 02:17:09;;;;;;;4.80;4.40;;;;;;;21.88;60.82;101097.81;5058568;28;20424;-70
2022/06/27 02:19:34;;;;;;;5.60;4.60;;;;;;;21.36;62.14;101098.47;5057929;28;20169;-70
2022/06/27 02:21:59;;;;;;;4.80;4.40;;;;;;;21.65;61.39;101101.16;5058750;28;20201;-68
2022/06/27 02:24:25;;;;;;;6.30;5.20;;;;;;;21.80;61.55;101111.31;5058737;28;20232;-72
2022/06/27 02:26:50;;;;;;;5.37;4.87;;;;;;;21.78;62.10;101117.56;5058548;28;20181;-70
2022/06/27 02:29:16;;;;;;;5.70;5.10;;;;;;;21.39;63.56;101121.34;5058080;28;20181;-70
2022/06/27 02:31:48;;;;;;;5.20;4.70;;;;;;;21.31;63.44;101099.50;5058964;28;20169;-70
2022/06/27 02:34:14;;;;;;;8.20;5.10;;;;;;;21.05;64.64;101089.66;5058191;28;20200;-69
2022/06/27 02:36:41;;;;;;;5.97;5.47;;;;;;;20.95;64.85;101083.75;5058389;28;20465;-69
2022/06/27 02:39:07;;;;;;;7.57;5.17;;;;;;;20.58;66.19;101076.75;5058083;28;20420;-70
2022/06/27 02:41:34;;;;;;;6.00;5.40;;;;;;;20.60;66.76;101074.97;5058479;28;20725;-68
2022/06/27 02:44:03;;;;;;;6.27;5.67;;;;;;;20.72;66.35;101071.16;5057529;28;20803;-69
2022/06/27 02:46:30;;;;;;;6.17;5.57;;;;;;;20.31;66.51;101077.47;5057481;28;20435;-69
2022/06/27 02:48:55;;;;;;;5.20;4.73;;;;;;;20.35;66.69;101067.66;5057979;28;20420;-70
2022/06/27 02:51:22;;;;;;;5.97;5.27;;;;;;;20.14;66.46;101066.41;5058485;28;20424;-69
2022/06/27 02:54:16;;;;;;;5.70;5.20;;;;;;;20.59;65.46;101060.81;5058546;28;20170;-69
2022/06/27 02:56:43;;;;;;;5.53;5.03;;;;;;;20.09;65.86;101076.25;5051918;28;20453;-70
2022/06/27 02:59:17;;;;;;;5.57;5.07;;;;;;;20.15;66.43;101081.41;5057726;28;20455;-68
2022/06/27 03:01:43;;;;;;;5.80;5.20;;;;;;;20.43;65.53;101091.28;5057076;28;20463;-69
2022/06/27 03:04:09;;;;;;;15.20;5.40;;;;;;;20.61;65.08;101097.88;5058340;28;20399;-69
2022/06/27 03:06:34;;;;;;;7.27;4.83;;;;;;;20.24;65.37;101104.13;5058478;28;20235;-69
2022/06/27 03:09:00;;;;;;;6.90;5.00;;;;;;;19.95;66.28;101106.56;5058506;28;20185;-68
2022/06/27 03:11:26;;;;;;;8.13;5.30;;;;;;;19.89;66.92;101111.13;5057640;28;20185;-69
2022/06/27 03:13:53;;;;;;;7.80;5.10;;;;;;;20.18;65.75;101116.59;5058124;28;20197;-69
2022/06/27 03:16:20;;;;;;;5.80;5.27;;;;;;;20.17;65.77;101122.81;5038019;28;20217;-70
2022/06/27 03:18:46;;;;;;;5.37;4.93;;;;;;;20.39;65.18;101135.53;5045009;28;20416;-69
2022/06/27 03:21:12;;;;;;;5.27;4.77;;;;;;;20.27;65.70;101117.25;5058674;28;20454;-67
2022/06/27 03:23:40;;;;;;;7.60;5.60;;;;;;;19.80;67.53;101102.50;5057374;28;20404;-68
2022/06/27 03:26:06;;;;;;;5.23;4.80;;;;;;;19.75;67.31;101106.97;5058095;28;20173;-70
2022/06/27 03:28:31;;;;;;;5.33;4.83;;;;;;;20.02;66.88;101137.28;5058518;28;20467;-70
2022/06/27 03:30:57;;;;;;;4.70;4.30;;;;;;;20.37;66.46;101166.44;5057963;28;20169;-70
2022/06/27 03:33:22;;;;;;;4.53;4.13;;;;;;;19.99;65.78;101177.03;5057794;28;20176;-69
2022/06/27 03:35:48;;;;;;;6.70;4.70;;;;;;;19.99;66.60;101186.75;5057730;28;20452;-69
2022/06/27 03:38:13;;;;;;;8.67;5.80;;;;;;;19.52;69.63;101177.16;5057945;28;20503;-69
2022/06/27 03:40:40;;;;;;;6.20;4.67;;;;;;;19.42;68.80;101167.66;5055885;28;20438;-68
2022/06/27 03:43:07;;;;;;;8.83;5.33;;;;;;;19.31;70.31;101151.16;5054356;28;20197;-68
2022/06/27 03:45:32;;;;;;;6.33;4.87;;;;;;;19.27;70.37;101123.03;5056421;28;20420;-68
2022/06/27 03:48:01;;;;;;;8.23;5.80;;;;;;;19.25;71.79;101112.47;5042637;28;20439;-68
2022/06/27 03:50:26;;;;;;;7.20;5.23;;;;;;;19.27;71.78;101100.09;5058251;28;20223;-69
2022/06/27 03:52:53;;;;;;;6.53;5.37;;;;;;;19.38;71.91;101091.94;5051993;28;20795;-69
2022/06/27 03:55:19;;;;;;;6.40;5.53;;;;;;;18.83;72.32;101084.22;5053791;28;20186;-68
2022/06/27 03:57:53;;;;;;;5.80;5.30;;;;;;;19.31;72.29;101080.63;5046902;28;20693;-68
2022/06/27 04:00:21;;;;;;;6.07;5.57;;;;;;;19.44;72.35;101070.63;5067670;28;20419;-70
2022/06/27 04:02:46;;;;;;;5.90;5.40;;;;;;;18.99;72.55;101046.94;5081388;28;20514;-70
2022/06/27 04:05:12;;;;;;;6.20;5.60;;;;;;;19.18;73.04;101056.22;5081873;28;20505;-69
2022/06/27 04:07:38;;;;;;;6.03;5.53;;;;;;;19.18;73.03;101066.78;5081692;28;20546;-70
2022/06/27 04:10:05;;;;;;;6.70;6.00;;;;;;;18.77;75.94;101068.47;5082115;28;20161;-69
2022/06/27 04:12:31;;;;;;;6.70;5.93;;;;;;;19.21;74.63;101071.13;5052511;28;20428;-68
2022/06/27 04:14:56;;;;;;;6.57;5.97;;;;;;;19.71;73.31;101065.63;5042775;28;20452;-68
2022/06/27 04:17:22;;;;;;;6.70;6.13;;;;;;;19.48;73.71;101069.69;5041186;28;20265;-70
2022/06/27 04:19:47;;;;;;;6.60;6.03;;;;;;;18.87;75.14;101081.50;5041304;28;20174;-69
2022/06/27 04:22:12;;;;;;;8.33;6.30;;;;;;;19.13;75.42;101066.03;5040507;28;20206;-69
2022/06/27 04:24:38;;;;;;;8.30;5.93;;;;;;;19.63;74.55;101065.84;5039458;28;20276;-69
2022/06/27 04:27:04;;;;;;;7.03;6.43;;;;;;;19.41;74.86;101059.28;5033421;28;20183;-69
2022/06/27 04:29:30;;;;;;;7.07;6.37;;;;;;;19.71;73.91;101062.13;5033001;28;20179;-69
2022/06/27 04:31:56;;;;;;;8.27;7.10;;;;;;;19.54;75.03;101071.31;5037259;28;20423;-69
2022/06/27 04:34:21;;;;;;;8.20;6.33;;;;;;;18.88;76.74;101056.84;5037792;28;20845;-69
2022/06/27 04:36:47;;;;;;;7.80;6.47;;;;;;;19.41;76.14;101046.06;5040083;28;20428;-69
2022/06/27 04:39:17;;;;;;;7.80;6.43;;;;;;;19.46;75.68;101033.63;5040609;28;20611;-70
2022/06/27 04:41:45;;;;;;;7.20;6.60;;;;;;;19.61;76.01;101035.03;5039975;28;20703;-70
2022/06/27 04:44:11;;;;;;;9.70;7.60;;;;;;;19.64;76.26;101027.03;5023394;28;20467;-68
2022/06/27 04:46:41;;;;;;;8.07;7.27;;;;;;;19.63;76.17;101014.69;5040763;28;20416;-70
2022/06/27 04:49:07;;;;;;;7.70;7.00;;;;;;;19.48;76.59;101000.94;5040586;28;20420;-69
2022/06/27 04:51:33;;;;;;;7.90;7.23;;;;;;;19.35;77.71;100991.56;5041038;28;20417;-70
2022/06/27 04:53:58;;;;;;;8.33;7.30;;;;;;;19.53;76.32;101004.31;5041281;28;20383;-71
2022/06/27 04:56:25;;;;;;;9.27;7.23;;;;;;;19.71;76.18;100991.56;5040904;28;20174;-71
2022/06/27 04:58:50;;;;;;;6.77;6.27;;;;;;;19.65;75.78;101000.53;5040573;28;20562;-71
2022/06/27 05:01:16;;;;;;;7.20;6.60;;;;;;;19.98;74.99;101005.06;5040983;28;20513;-70
2022/06/27 05:03:41;;;;;;;8.10;6.83;;;;;;;20.07;74.56;101003.97;5042001;28;20180;-70
2022/06/27 05:06:07;;;;;;;7.77;7.07;;;;;;;19.72;76.03;101003.91;5040870;28;20197;-70
2022/06/27 05:08:32;;;;;;;7.77;7.07;;;;;;;20.02;74.62;101006.72;5041157;28;20162;-70
2022/06/27 05:10:58;;;;;;;7.80;7.10;;;;;;;19.87;74.98;101013.25;5040363;28;20171;-70
2022/06/27 05:13:23;;;;;;;7.70;7.10;;;;;;;20.20;73.46;100992.13;5040062;28;20175;-70
2022/06/27 05:15:49;;;;;;;8.13;7.30;;;;;;;20.53;72.76;100990.34;5052635;28;20283;-70
2022/06/27 05:18:15;;;;;;;7.00;6.30;;;;;;;20.59;72.94;101007.84;5060374;28;20165;-70
2022/06/27 05:20:42;;;;;;;9.17;8.37;;;;;;;20.29;73.73;101009.56;5060302;28;20165;-70
2022/06/27 05:23:07;;;;;;;11.03;9.90;;;;;;;20.17;73.94;101019.56;5059600;28;20683;-70
2022/06/27 05:25:33;;;;;;;7.70;6.57;;;;;;;20.40;72.61;101020.72;5060028;28;20408;-69
2022/06/27 05:27:59;;;;;;;7.00;6.40;;;;;;;20.62;72.32;101021.03;5060044;28;20266;-70
2022/06/27 05:30:24;;;;;;;6.53;6.00;;;;;;;20.28;73.37;101018.41;5060134;28;20166;-70
2022/06/27 05:32:50;;;;;;;6.73;6.03;;;;;;;20.15;73.05;101005.50;5059797;28;20702;-69
2022/06/27 05:35:15;;;;;;;15.33;7.23;;;;;;;21.06;71.14;101011.88;5060577;28;20185;-70
2022/06/27 05:37:44;;;;;;;7.23;6.53;;;;;;;21.50;68.03;101018.47;5059964;28;20165;-69
2022/06/27 05:40:09;;;;;;;7.13;6.50;;;;;;;23.16;63.52;101008.31;5059706;28;20165;-70
2022/06/27 05:42:35;;;;;;;7.33;6.60;;;;;;;23.20;61.99;100996.66;5061858;28;20446;-71
2022/06/27 05:45:01;;;;;;;6.70;6.00;;;;;;;22.46;64.41;100993.19;5062082;28;20531;-70
2022/06/27 05:47:28;;;;;;;6.47;5.90;;;;;;;21.59;67.20;100971.38;5059787;28;20173;-70
2022/06/27 05:49:54;;;;;;;8.00;6.40;;;;;;;21.34;68.59;100972.97;5059882;28;20688;-71
2022/06/27 05:52:20;;;;;;;6.97;6.33;;;;;;;21.77;69.67;100984.03;5059631;28;20495;-70
2022/06/27 05:54:46;;;;;;;7.80;7.03;;;;;;;21.55;68.91;100983.00;5059605;28;20450;-70
2022/06/27 05:57:14;;;;;;;7.27;6.57;;;;;;;21.78;68.45;100985.75;5060639;28;20170;-70
2022/06/27 05:59:40;;;;;;;8.13;7.17;;;;;;;20.61;71.36;100984.84;5059542;28;20668;-70
2022/06/27 06:02:05;;;;;;;7.60;6.90;;;;;;;20.94;72.00;100987.44;5058747;28;20548;-71
2022/06/27 06:04:31;;;;;;;7.93;7.13;;;;;;;20.54;72.63;100988.59;5059448;28;20194;-71
2022/06/27 06:06:57;;;;;;;8.00;7.30;;;;;;;19.72;76.77;100987.16;5059333;28;20170;-69
2022/06/27 06:09:22;;;;;;;9.23;7.20;;;;;;;20.01;76.98;100987.34;5059447;28;20488;-69
2022/06/27 06:11:51;;;;;;;8.77;7.90;;;;;;;20.49;75.73;100980.75;5059587;28;20558;-72
2022/06/27 06:14:19;;;;;;;8.40;7.67;;;;;;;21.07;73.10;100973.81;5058466;28;20185;-72
2022/06/27 06:16:45;;;;;;;8.80;7.90;;;;;;;21.38;71.57;100971.13;5059208;28;20930;-72
2022/06/27 06:19:11;;;;;;;8.77;8.07;;;;;;;21.51;71.59;100968.91;5059402;28;20422;-69
2022/06/27 06:21:38;;;;;;;8.20;7.50;;;;;;;21.96;70.86;100968.34;5058064;28;20463;-70
2022/06/27 06:24:04;;;;;;;10.87;9.00;;;;;;;21.92;70.70;100960.53;5058916;28;20469;-71
2022/06/27 06:26:29;;;;;;;10.63;8.50;;;;;;;22.27;69.04;100961.97;5059527;28;20495;-69
2022/06/27 06:28:55;;;;;;;15.23;8.80;;;;;;;22.18;68.99;100963.16;5059058;28;20207;-71
2022/06/27 06:31:22;;;;;;;11.90;8.33;;;;;;;21.98;69.55;100960.31;5058623;28;20173;-71
2022/06/27 06:33:53;;;;;;;9.10;8.20;;;;;;;22.84;67.40;100953.69;5058990;28;20396;-70
2022/06/27 06:36:21;;;;;;;9.10;8.30;;;;;;;22.77;67.01;100952.19;5058548;28;20493;-72
2022/06/27 06:38:47;;;;;;;9.50;8.70;;;;;;;22.28;67.96;100970.78;5058581;28;20422;-72
2022/06/27 06:41:12;;;;;;;9.00;8.10;;;;;;;22.34;68.91;100962.63;5058720;28;20841;-73
2022/06/27 06:43:37;;;;;;;10.10;9.20;;;;;;;22.26;68.37;100959.34;5057650;28;20200;-74
2022/06/27 06:46:03;;;;;;;12.53;9.53;;;;;;;21.86;69.84;100969.56;5058561;28;20169;-74
2022/06/27 06:48:30;;;;;;;9.07;8.30;;;;;;;21.86;70.21;100966.91;5058205;28;20423;-73
2022/06/27 06:50:55;;;;;;;9.57;8.67;;;;;;;21.72;69.63;100964.72;5058351;28;20197;-73
2022/06/27 06:53:21;;;;;;;11.43;10.50;;;;;;;22.08;69.32;100961.72;5058229;28;20503;-72
2022/06/27 06:55:48;;;;;;;11.10;10.00;;;;;;;22.32;69.34;100959.13;5052093;28;20174;-72
2022/06/27 06:58:13;;;;;;;12.40;9.77;;;;;;;22.48;67.90;100965.66;5052851;28;20435;-71
2022/06/27 07:00:39;;;;;;;9.93;9.03;;;;;;;22.61;68.21;100982.03;5041379;28;20432;-71
2022/06/27 07:03:05;;;;;;;10.60;9.70;;;;;;;22.49;68.26;100978.03;5051280;28;20204;-71
2022/06/27 07:05:32;;;;;;;10.90;9.90;;;;;;;22.19;70.13;100980.81;5057801;28;20997;-72
2022/06/27 07:07:58;;;;;;;10.77;9.70;;;;;;;21.91;70.66;100994.19;5058125;28;20427;-70
2022/06/27 07:10:25;;;;;;;11.63;10.57;;;;;;;22.18;69.71;100999.47;5058461;28;20473;-71
2022/06/27 07:12:51;;;;;;;12.63;11.53;;;;;;;22.45;69.20;101010.09;5057750;28;20416;-71
2022/06/27 07:15:17;;;;;;;11.43;10.43;;;;;;;22.35;68.55;101012.16;5057136;28;20479;-70
2022/06/27 07:17:47;;;;;;;10.60;9.60;;;;;;;22.25;70.24;101037.31;5057550;28;20475;-71
2022/06/27 07:20:14;;;;;;;8.73;8.03;;;;;;;22.09;70.63;101042.25;5057549;28;20294;-73
2022/06/27 07:22:41;;;;;;;12.87;9.50;;;;;;;21.99;70.07;101044.38;5057567;28;20502;-70
2022/06/27 07:25:07;;;;;;;9.90;8.97;;;;;;;21.73;71.42;101061.13;5058369;28;20465;-71
2022/06/27 07:27:34;;;;;;;10.63;8.30;;;;;;;21.56;70.84;101056.38;5055672;28;20427;-71
2022/06/27 07:30:00;;;;;;;9.90;8.80;;;;;;;21.44;71.65;101063.72;5051022;28;20432;-71
2022/06/27 07:32:27;;;;;;;11.07;9.80;;;;;;;21.28;72.81;101070.41;5051300;28;20465;-70
2022/06/27 07:34:54;;;;;;;10.03;9.13;;;;;;;21.30;72.07;101074.75;5056365;28;20906;-70
2022/06/27 07:37:20;;;;;;;12.73;11.47;;;;;;;21.66;71.04;101065.75;5048400;28;20432;-70
2022/06/27 07:39:45;;;;;;;10.53;9.63;;;;;;;21.46;71.05;101063.69;5050148;28;20910;-71
2022/06/27 07:42:11;;;;;;;11.00;9.90;;;;;;;21.19;71.91;101059.19;5047698;28;20206;-70
2022/06/27 07:44:36;;;;;;;11.43;10.50;;;;;;;21.44;71.72;101061.06;5055997;28;20455;-70
2022/06/27 07:47:03;;;;;;;10.57;9.67;;;;;;;21.27;72.30;101064.25;5051398;28;20174;-71
2022/06/27 07:49:29;;;;;;;9.63;8.83;;;;;;;21.15;72.66;101059.31;5056582;28;20190;-70
2022/06/27 07:51:55;;;;;;;11.80;9.37;;;;;;;20.71;73.38;101056.16;5057135;28;20423;-71
2022/06/27 07:54:21;;;;;;;9.60;8.80;;;;;;;20.76;73.26;101048.94;5056536;28;20455;-71
2022/06/27 07:56:47;;;;;;;9.80;8.90;;;;;;;20.69;73.29;101045.59;5053895;28;20520;-70
2022/06/27 07:59:14;;;;;;;10.77;9.70;;;;;;;21.13;71.33;101035.47;5053250;28;20454;-71
2022/06/27 08:01:40;;;;;;;11.60;9.63;;;;;;;20.53;72.02;101039.81;5057229;28;20505;-71
2022/06/27 08:04:07;;;;;;;9.00;8.30;;;;;;;20.64;73.37;101026.28;5050438;28;20485;-71
2022/06/27 08:06:33;;;;;;;10.20;9.23;;;;;;;20.72;72.09;101018.16;5051883;28;20694;-71
2022/06/27 08:09:00;;;;;;;11.00;10.00;;;;;;;20.97;71.42;101015.66;5046646;28;20493;-71
2022/06/27 08:11:28;;;;;;;10.33;9.13;;;;;;;20.90;71.62;101028.22;5056979;28;20204;-71
2022/06/27 08:13:56;;;;;;;10.90;9.90;;;;;;;20.81;71.88;101045.25;5049744;28;20545;-71
2022/06/27 08:16:23;;;;;;;10.97;10.00;;;;;;;21.29;70.02;101049.16;5050819;28;20456;-71
2022/06/27 08:18:51;;;;;;;10.60;9.50;;;;;;;21.17;70.58;101050.38;5053667;28;20818;-71
2022/06/27 08:21:20;;;;;;;10.80;9.80;;;;;;;20.99;71.26;101056.25;5057173;28;20467;-71
2022/06/27 08:23:48;;;;;;;10.43;9.50;;;;;;;20.95;70.95;101047.50;5054512;28;20428;-70
2022/06/27 08:26:14;;;;;;;10.50;9.60;;;;;;;21.12;70.84;101041.72;5054585;28;20428;-69
2022/06/27 08:28:41;;;;;;;11.03;9.67;;;;;;;20.86;70.63;101038.06;5055649;28;20816;-70
2022/06/27 08:31:08;;;;;;;24.23;13.03;;;;;;;20.22;72.44;101045.06;5053838;28;20425;-70
2022/06/27 08:33:35;;;;;;;11.40;10.27;;;;;;;20.56;72.23;101046.81;5039658;28;20538;-70
2022/06/27 08:36:03;;;;;;;15.30;12.63;;;;;;;20.41;71.99;101048.94;5056282;28;20427;-71
2022/06/27 08:38:29;;;;;;;14.07;12.90;;;;;;;20.52;71.73;101043.38;5055959;28;20444;-71
2022/06/27 08:40:56;;;;;;;13.63;12.33;;;;;;;20.70;71.17;101044.66;5056327;28;20504;-73
2022/06/27 08:43:22;;;;;;;13.90;12.70;;;;;;;21.14;70.22;101050.47;5053630;28;20443;-72
2022/06/27 08:45:49;;;;;;;15.10;12.23;;;;;;;20.64;70.49;101058.91;5054873;28;20439;-71
2022/06/27 08:48:15;;;;;;;14.40;13.10;;;;;;;20.97;70.67;101063.34;5052792;28;20228;-71
2022/06/27 08:50:42;;;;;;;13.30;12.00;;;;;;;21.18;70.36;101060.06;5056080;28;20432;-72
2022/06/27 08:53:10;;;;;;;17.80;14.10;;;;;;;21.15;69.20;101060.19;5055880;28;20571;-72
2022/06/27 08:55:35;;;;;;;14.47;13.20;;;;;;;20.65;71.87;101060.66;5056052;28;20519;-75
2022/06/27 08:58:06;;;;;;;13.07;11.87;;;;;;;20.80;70.61;101066.50;5059232;28;20411;-72
2022/06/27 09:00:36;;;;;;;12.93;11.63;;;;;;;20.79;70.62;101062.09;5058660;28;20176;-73
2022/06/27 09:03:03;;;;;;;17.57;15.50;;;;;;;20.98;70.13;101043.91;5055476;28;20509;-73
2022/06/27 09:05:30;;;;;;;15.73;14.10;;;;;;;21.51;68.88;101035.22;5045154;28;20445;-72
2022/06/27 09:07:56;;;;;;;14.43;13.07;;;;;;;21.77;67.75;101034.44;5039138;28;20421;-71
2022/06/27 09:10:29;;;;;;;13.83;12.53;;;;;;;21.55;68.79;101036.03;5051707;28;20467;-72
2022/06/27 09:12:56;;;;;;;20.77;18.60;;;;;;;21.11;69.73;101045.28;5054275;28;20255;-74
2022/06/27 09:15:25;;;;;;;18.40;16.70;;;;;;;21.55;68.54;101039.56;5054606;28;20475;-73
2022/06/27 09:18:04;;;;;;;16.57;14.80;;;;;;;21.22;69.75;101037.00;5053586;28;20466;-73
2022/06/27 09:20:57;;;;;;;18.13;16.30;;;;;;;21.31;69.36;101033.19;5056685;28;20435;-74
2022/06/27 09:23:39;;;;;;;16.00;14.70;;;;;;;21.65;68.83;101037.47;5058481;28;20690;-72
2022/06/27 09:26:10;;;;;;;15.13;13.70;;;;;;;21.65;68.34;101051.63;5047285;28;20420;-71
2022/06/27 09:28:42;;;;;;;14.50;13.20;;;;;;;21.25;69.62;101060.78;5050429;28;20454;-71
2022/06/27 09:31:10;;;;;;;15.10;13.50;;;;;;;21.34;68.49;101068.44;5052847;28;20463;-72
2022/06/27 09:33:38;;;;;;;17.43;11.97;;;;;;;21.69;68.61;101073.63;5058065;28;20458;-71
2022/06/27 09:36:14;;;;;;;14.83;13.23;;;;;;;21.43;70.35;101080.56;5058859;28;20431;-71
2022/06/27 09:38:41;;;;;;;16.53;13.20;;;;;;;21.30;69.69;101073.91;5059570;28;20477;-72
2022/06/27 09:41:09;;;;;;;13.27;12.03;;;;;;;21.77;68.59;101071.59;5043370;28;20496;-71
2022/06/27 09:43:37;;;;;;;13.73;12.53;;;;;;;21.66;68.39;101071.06;5056267;28;20442;-70
2022/06/27 09:46:03;;;;;;;15.77;14.13;;;;;;;21.70;68.37;101062.09;5058111;28;20416;-71
2022/06/27 09:48:29;;;;;;;14.47;13.33;;;;;;;21.40;68.54;101053.28;5053196;28;20435;-70
2022/06/27 09:50:56;;;;;;;13.40;12.10;;;;;;;21.75;68.20;101043.38;5058621;28;20427;-71
2022/06/27 09:53:26;;;;;;;14.83;13.27;;;;;;;21.90;67.78;101044.66;5058191;28;20428;-72
2022/06/27 09:55:52;;;;;;;14.53;13.13;;;;;;;21.80;68.24;101042.31;5057424;28;20451;-71
2022/06/27 09:58:18;;;;;;;12.53;11.53;;;;;;;22.18;66.98;101047.28;5052839;28;20932;-70
2022/06/27 10:00:44;;;;;;;13.93;12.63;;;;;;;22.08;67.01;101046.69;5057129;28;20426;-70
2022/06/27 10:03:09;;;;;;;15.50;13.30;;;;;;;21.96;66.87;101044.44;5057128;28;20188;-71
2022/06/27 10:05:35;;;;;;;16.30;14.00;;;;;;;22.13;66.91;101050.06;5053489;28;20436;-71
2022/06/27 10:08:05;;;;;;;18.50;16.60;;;;;;;22.04;67.50;101034.44;5057580;28;20192;-70
2022/06/27 10:10:32;;;;;;;16.03;14.17;;;;;;;22.12;67.77;101040.38;5057101;28;20477;-71
2022/06/27 10:13:02;;;;;;;15.57;14.10;;;;;;;21.61;68.69;101062.38;5056828;28;20443;-71
2022/06/27 10:15:30;;;;;;;15.43;14.13;;;;;;;21.92;67.97;101064.94;5038198;28;20926;-71
2022/06/27 10:17:58;;;;;;;16.47;14.47;;;;;;;21.74;68.16;101057.56;5040805;28;20438;-70
2022/06/27 10:20:26;;;;;;;15.27;13.97;;;;;;;21.27;69.45;101063.38;5049370;28;20451;-71
2022/06/27 10:23:04;;;;;;;15.93;14.37;;;;;;;22.38;67.26;101059.91;5050635;28;20475;-70
2022/06/27 10:25:29;;;;;;;14.60;13.20;;;;;;;22.00;67.41;101057.59;5046352;28;20435;-71
2022/06/27 10:28:13;;;;;;;14.87;13.40;;;;;;;22.40;66.66;101049.22;5054904;28;20412;-70
2022/06/27 10:30:43;;;;;;;16.90;15.40;;;;;;;22.16;66.58;101041.13;5047009;28;20192;-71
2022/06/27 10:33:21;;;;;;;14.90;13.50;;;;;;;22.20;66.92;101040.09;5051590;28;20514;-71
2022/06/27 10:38:33;;;;;;;15.53;14.00;;;;;;;22.93;65.97;101054.38;5045499;28;20435;-72
2022/06/27 10:41:02;;;;;;;18.00;15.17;;;;;;;22.88;65.12;101049.25;5052661;28;20549;-71
2022/06/27 10:43:43;;;;;;;16.17;14.50;;;;;;;22.57;65.57;101057.47;5041861;28;20408;-71
2022/06/27 10:46:11;;;;;;;14.97;13.63;;;;;;;23.03;65.26;101065.56;5048098;28;20708;-70
2022/06/27 10:48:39;;;;;;;15.13;13.80;;;;;;;22.42;66.12;101056.22;5050602;28;20412;-70
2022/06/27 10:51:27;;;;;;;16.07;14.63;;;;;;;22.56;65.52;101052.22;5057119;28;20462;-71
2022/06/27 10:53:59;;;;;;;16.00;14.50;;;;;;;21.91;68.05;101047.25;5055868;28;20424;-71
2022/06/27 10:56:34;;;;;;;15.70;14.20;;;;;;;22.38;66.31;101043.97;5053263;28;20435;-70
2022/06/27 10:59:05;;;;;;;17.27;15.33;;;;;;;21.89;68.06;101034.97;5045308;28;20450;-72
2022/06/27 11:01:31;;;;;;;17.07;14.23;;;;;;;22.01;68.75;101038.09;5038473;28;20468;-71
2022/06/27 11:03:57;;;;;;;16.67;15.07;;;;;;;21.63;70.03;101026.91;5049485;28;20604;-71
2022/06/27 11:06:22;;;;;;;18.37;16.57;;;;;;;21.93;70.48;101015.34;5045298;28;20216;-71
2022/06/27 11:08:50;;;;;;;17.10;15.03;;;;;;;22.44;67.82;101011.84;5056750;28;20177;-71
2022/06/27 11:11:17;;;;;;;20.13;18.00;;;;;;;22.48;68.49;101017.94;5056235;28;20472;-71
2022/06/27 11:13:47;;;;;;;21.23;17.00;;;;;;;21.90;70.68;101050.81;5050009;28;20446;-70
2022/06/27 11:16:19;;;;;;;18.93;17.13;;;;;;;22.11;70.90;101066.97;5044791;28;20521;-71
2022/06/27 11:18:51;;;;;;;18.23;16.43;;;;;;;21.97;71.21;101064.78;5052570;28;20579;-72
2022/06/27 11:21:20;;;;;;;17.10;15.50;;;;;;;22.10;70.69;101067.91;5055063;28;20548;-71